sensor_id;sensor_type;location;lat;lon;timestamp;P1;durP1;ratioP1;P2;durP2;ratioP2
14665;SDS011;7420;53.574;10.040;2022-09-27T00:02:12;4.88;;;4.38;;
14665;SDS011;7420;53.574;10.040;2022-09-27T00:04:37;6.55;;;5.63;;
14665;SDS011;7420;53.574;10.040;2022-09-27T00:07:03;6.43;;;4.80;;
14665;SDS011;7420;53.574;10.040;2022-09-27T00:09:28;6.32;;;4.45;;
14665;SDS011;7420;53.574;10.040;2022-09-27T00:11:54;9.15;;;4.65;;
14665;SDS011;7420;53.574;10.040;2022-09-27T00:14:19;6.22;;;4.85;;
14665;SDS011;7420;53.574;10.040;2022-09-27T00:16:46;5.13;;;4.63;;
14665;SDS011;7420;53.574;10.040;2022-09-27T00:19:14;6.20;;;4.60;;
14665;SDS011;7420;53.574;10.040;2022-09-27T00:21:44;5.45;;;4.35;;
14665;SDS011;7420;53.574;10.040;2022-09-27T00:24:11;6.85;;;5.55;;
14665;SDS011;7420;53.574;10.040;2022-09-27T00:26:41;5.60;;;4.88;;
14665;SDS011;7420;53.574;10.040;2022-09-27T00:29:08;5.20;;;4.68;;
14665;SDS011;7420;53.574;10.040;2022-09-27T00:31:35;6.07;;;4.50;;
14665;SDS011;7420;53.574;10.040;2022-09-27T00:34:02;7.60;;;5.18;;
14665;SDS011;7420;53.574;10.040;2022-09-27T00:36:29;8.18;;;5.40;;
14665;SDS011;7420;53.574;10.040;2022-09-27T00:38:56;6.30;;;5.35;;
14665;SDS011;7420;53.574;10.040;2022-09-27T00:41:29;6.22;;;4.50;;
14665;SDS011;7420;53.574;10.040;2022-09-27T00:43:57;6.93;;;4.75;;
14665;SDS011;7420;53.574;10.040;2022-09-27T00:49:37;4.75;;;4.25;;
14665;SDS011;7420;53.574;10.040;2022-09-27T00:52:06;5.38;;;4.32;;
14665;SDS011;7420;53.574;10.040;2022-09-27T00:54:35;6.40;;;4.72;;
14665;SDS011;7420;53.574;10.040;2022-09-27T00:57:04;6.22;;;4.63;;
14665;SDS011;7420;53.574;10.040;2022-09-27T00:59:33;5.75;;;4.38;;
14665;SDS011;7420;53.574;10.040;2022-09-27T01:02:03;6.78;;;4.22;;
14665;SDS011;7420;53.574;10.040;2022-09-27T01:04:31;6.50;;;4.50;;
14665;SDS011;7420;53.574;10.040;2022-09-27T01:06:58;6.43;;;4.95;;
14665;SDS011;7420;53.574;10.040;2022-09-27T01:09:24;5.82;;;5.18;;
14665;SDS011;7420;53.574;10.040;2022-09-27T01:11:53;6.15;;;4.30;;
14665;SDS011;7420;53.574;10.040;2022-09-27T01:14:51;5.82;;;4.10;;
14665;SDS011;7420;53.574;10.040;2022-09-27T01:20:23;5.00;;;3.88;;
14665;SDS011;7420;53.574;10.040;2022-09-27T01:31:51;4.65;;;4.25;;
14665;SDS011;7420;53.574;10.040;2022-09-27T01:36:54;5.75;;;4.75;;
14665;SDS011;7420;53.574;10.040;2022-09-27T01:45:22;6.10;;;4.88;;
14665;SDS011;7420;53.574;10.040;2022-09-27T01:47:54;6.68;;;4.78;;
14665;SDS011;7420;53.574;10.040;2022-09-27T01:50:28;5.07;;;4.57;;
14665;SDS011;7420;53.574;10.040;2022-09-27T01:53:00;5.45;;;4.20;;
14665;SDS011;7420;53.574;10.040;2022-09-27T01:55:31;5.93;;;4.50;;
14665;SDS011;7420;53.574;10.040;2022-09-27T01:58:03;5.10;;;4.60;;
14665;SDS011;7420;53.574;10.040;2022-09-27T02:00:35;6.57;;;4.20;;
14665;SDS011;7420;53.574;10.040;2022-09-27T02:03:05;6.15;;;4.85;;
14665;SDS011;7420;53.574;10.040;2022-09-27T02:05:42;5.32;;;4.38;;
14665;SDS011;7420;53.574;10.040;2022-09-27T02:08:14;5.80;;;4.20;;
14665;SDS011;7420;53.574;10.040;2022-09-27T02:10:55;8.52;;;5.32;;
14665;SDS011;7420;53.574;10.040;2022-09-27T02:13:25;6.38;;;4.65;;
14665;SDS011;7420;53.574;10.040;2022-09-27T02:25:04;7.75;;;5.47;;
14665;SDS011;7420;53.574;10.040;2022-09-27T02:30:16;6.60;;;5.72;;
14665;SDS011;7420;53.574;10.040;2022-09-27T02:32:42;6.95;;;5.20;;
14665;SDS011;7420;53.574;10.040;2022-09-27T02:37:43;7.43;;;5.15;;
14665;SDS011;7420;53.574;10.040;2022-09-27T02:40:09;9.38;;;5.55;;
14665;SDS011;7420;53.574;10.040;2022-09-27T02:42:34;8.40;;;4.93;;
14665;SDS011;7420;53.574;10.040;2022-09-27T02:45:02;6.20;;;5.18;;
14665;SDS011;7420;53.574;10.040;2022-09-27T02:53:03;9.23;;;6.40;;
14665;SDS011;7420;53.574;10.040;2022-09-27T02:55:52;7.03;;;5.55;;
14665;SDS011;7420;53.574;10.040;2022-09-27T03:01:26;8.00;;;5.68;;
14665;SDS011;7420;53.574;10.040;2022-09-27T03:06:47;7.88;;;6.50;;
14665;SDS011;7420;53.574;10.040;2022-09-27T03:09:20;8.20;;;5.32;;
14665;SDS011;7420;53.574;10.040;2022-09-27T03:11:47;7.45;;;6.00;;
14665;SDS011;7420;53.574;10.040;2022-09-27T03:14:13;7.45;;;5.22;;
14665;SDS011;7420;53.574;10.040;2022-09-27T03:16:39;6.72;;;5.82;;
14665;SDS011;7420;53.574;10.040;2022-09-27T03:19:04;8.52;;;6.45;;
14665;SDS011;7420;53.574;10.040;2022-09-27T03:21:30;11.57;;;7.05;;
14665;SDS011;7420;53.574;10.040;2022-09-27T03:23:55;8.82;;;6.43;;
14665;SDS011;7420;53.574;10.040;2022-09-27T03:26:21;9.27;;;6.50;;
14665;SDS011;7420;53.574;10.040;2022-09-27T03:28:46;8.57;;;6.95;;
14665;SDS011;7420;53.574;10.040;2022-09-27T03:31:11;9.40;;;6.78;;
14665;SDS011;7420;53.574;10.040;2022-09-27T03:33:37;9.30;;;7.10;;
14665;SDS011;7420;53.574;10.040;2022-09-27T03:36:02;10.10;;;7.38;;
14665;SDS011;7420;53.574;10.040;2022-09-27T03:38:28;8.77;;;7.10;;
14665;SDS011;7420;53.574;10.040;2022-09-27T03:40:53;10.52;;;7.00;;
14665;SDS011;7420;53.574;10.040;2022-09-27T03:43:19;10.13;;;7.45;;
14665;SDS011;7420;53.574;10.040;2022-09-27T03:45:44;10.02;;;7.38;;
14665;SDS011;7420;53.574;10.040;2022-09-27T03:48:10;9.30;;;6.93;;
14665;SDS011;7420;53.574;10.040;2022-09-27T03:50:35;7.85;;;6.75;;
14665;SDS011;7420;53.574;10.040;2022-09-27T03:53:01;9.70;;;7.65;;
14665;SDS011;7420;53.574;10.040;2022-09-27T03:55:26;10.32;;;7.68;;
14665;SDS011;7420;53.574;10.040;2022-09-27T03:57:51;7.55;;;6.78;;
14665;SDS011;7420;53.574;10.040;2022-09-27T04:00:17;11.10;;;7.95;;
14665;SDS011;7420;53.574;10.040;2022-09-27T04:02:43;10.98;;;7.10;;
14665;SDS011;7420;53.574;10.040;2022-09-27T04:05:09;8.90;;;8.00;;
14665;SDS011;7420;53.574;10.040;2022-09-27T04:07:35;13.25;;;8.25;;
14665;SDS011;7420;53.574;10.040;2022-09-27T04:10:01;12.88;;;7.38;;
14665;SDS011;7420;53.574;10.040;2022-09-27T04:12:26;10.38;;;7.20;;
14665;SDS011;7420;53.574;10.040;2022-09-27T04:14:52;10.45;;;6.57;;
14665;SDS011;7420;53.574;10.040;2022-09-27T04:17:19;9.75;;;6.78;;
14665;SDS011;7420;53.574;10.040;2022-09-27T04:19:44;13.48;;;7.30;;
14665;SDS011;7420;53.574;10.040;2022-09-27T04:22:09;9.10;;;6.50;;
14665;SDS011;7420;53.574;10.040;2022-09-27T04:24:35;12.50;;;7.63;;
14665;SDS011;7420;53.574;10.040;2022-09-27T04:27:00;9.98;;;7.53;;
14665;SDS011;7420;53.574;10.040;2022-09-27T04:29:26;8.93;;;7.63;;
14665;SDS011;7420;53.574;10.040;2022-09-27T04:31:52;9.27;;;6.30;;
14665;SDS011;7420;53.574;10.040;2022-09-27T04:34:17;11.02;;;7.35;;
14665;SDS011;7420;53.574;10.040;2022-09-27T04:37:03;12.20;;;8.45;;
14665;SDS011;7420;53.574;10.040;2022-09-27T04:39:28;11.13;;;7.30;;
14665;SDS011;7420;53.574;10.040;2022-09-27T04:41:54;14.57;;;8.60;;
14665;SDS011;7420;53.574;10.040;2022-09-27T04:44:19;14.15;;;8.38;;
14665;SDS011;7420;53.574;10.040;2022-09-27T04:46:44;11.68;;;7.63;;
14665;SDS011;7420;53.574;10.040;2022-09-27T04:49:10;13.98;;;8.63;;
14665;SDS011;7420;53.574;10.040;2022-09-27T04:51:35;16.40;;;9.88;;
14665;SDS011;7420;53.574;10.040;2022-09-27T04:54:01;18.23;;;10.48;;
14665;SDS011;7420;53.574;10.040;2022-09-27T04:56:26;12.38;;;7.72;;
14665;SDS011;7420;53.574;10.040;2022-09-27T04:58:51;11.60;;;8.27;;
14665;SDS011;7420;53.574;10.040;2022-09-27T05:01:17;10.32;;;7.03;;
14665;SDS011;7420;53.574;10.040;2022-09-27T05:03:43;10.65;;;7.90;;
14665;SDS011;7420;53.574;10.040;2022-09-27T05:06:09;9.30;;;7.55;;
14665;SDS011;7420;53.574;10.040;2022-09-27T05:08:34;13.60;;;8.57;;
14665;SDS011;7420;53.574;10.040;2022-09-27T05:10:59;13.10;;;8.98;;
14665;SDS011;7420;53.574;10.040;2022-09-27T05:13:25;11.32;;;7.97;;
14665;SDS011;7420;53.574;10.040;2022-09-27T05:15:51;21.77;;;12.90;;
14665;SDS011;7420;53.574;10.040;2022-09-27T05:18:16;16.17;;;9.80;;
14665;SDS011;7420;53.574;10.040;2022-09-27T05:20:42;12.57;;;7.60;;
14665;SDS011;7420;53.574;10.040;2022-09-27T05:23:09;12.68;;;7.85;;
14665;SDS011;7420;53.574;10.040;2022-09-27T05:25:34;13.75;;;8.18;;
14665;SDS011;7420;53.574;10.040;2022-09-27T05:27:59;15.35;;;9.13;;
14665;SDS011;7420;53.574;10.040;2022-09-27T05:30:25;12.43;;;8.98;;
14665;SDS011;7420;53.574;10.040;2022-09-27T05:32:51;14.05;;;8.10;;
14665;SDS011;7420;53.574;10.040;2022-09-27T05:35:17;11.52;;;8.40;;
14665;SDS011;7420;53.574;10.040;2022-09-27T05:37:43;14.45;;;10.10;;
14665;SDS011;7420;53.574;10.040;2022-09-27T05:40:15;13.07;;;9.25;;
14665;SDS011;7420;53.574;10.040;2022-09-27T05:42:41;17.83;;;10.82;;
14665;SDS011;7420;53.574;10.040;2022-09-27T05:45:06;14.98;;;9.45;;
14665;SDS011;7420;53.574;10.040;2022-09-27T05:47:32;12.18;;;9.20;;
14665;SDS011;7420;53.574;10.040;2022-09-27T05:49:57;15.50;;;9.75;;
14665;SDS011;7420;53.574;10.040;2022-09-27T05:52:23;16.00;;;10.82;;
14665;SDS011;7420;53.574;10.040;2022-09-27T05:54:49;14.77;;;9.65;;
14665;SDS011;7420;53.574;10.040;2022-09-27T05:57:14;12.10;;;9.48;;
14665;SDS011;7420;53.574;10.040;2022-09-27T05:59:39;13.98;;;10.00;;
14665;SDS011;7420;53.574;10.040;2022-09-27T06:02:05;15.90;;;10.80;;
14665;SDS011;7420;53.574;10.040;2022-09-27T06:04:30;15.98;;;11.23;;
14665;SDS011;7420;53.574;10.040;2022-09-27T06:06:56;17.95;;;11.40;;
14665;SDS011;7420;53.574;10.040;2022-09-27T06:09:23;20.63;;;12.73;;
14665;SDS011;7420;53.574;10.040;2022-09-27T06:11:49;21.33;;;13.07;;
14665;SDS011;7420;53.574;10.040;2022-09-27T06:14:15;17.85;;;10.63;;
14665;SDS011;7420;53.574;10.040;2022-09-27T06:16:40;19.55;;;12.20;;
14665;SDS011;7420;53.574;10.040;2022-09-27T06:19:05;19.80;;;12.40;;
14665;SDS011;7420;53.574;10.040;2022-09-27T06:21:31;21.35;;;11.63;;
14665;SDS011;7420;53.574;10.040;2022-09-27T06:23:56;27.02;;;12.60;;
14665;SDS011;7420;53.574;10.040;2022-09-27T06:26:24;17.83;;;10.63;;
14665;SDS011;7420;53.574;10.040;2022-09-27T06:28:51;13.00;;;8.98;;
14665;SDS011;7420;53.574;10.040;2022-09-27T06:31:16;15.55;;;9.65;;
14665;SDS011;7420;53.574;10.040;2022-09-27T06:33:42;14.70;;;8.77;;
14665;SDS011;7420;53.574;10.040;2022-09-27T06:36:07;16.60;;;8.85;;
14665;SDS011;7420;53.574;10.040;2022-09-27T06:38:35;15.50;;;9.43;;
14665;SDS011;7420;53.574;10.040;2022-09-27T06:41:00;13.23;;;8.73;;
14665;SDS011;7420;53.574;10.040;2022-09-27T06:43:27;12.93;;;8.13;;
14665;SDS011;7420;53.574;10.040;2022-09-27T06:45:53;12.52;;;8.07;;
14665;SDS011;7420;53.574;10.040;2022-09-27T06:48:19;12.07;;;7.35;;
14665;SDS011;7420;53.574;10.040;2022-09-27T06:50:45;13.32;;;6.68;;
14665;SDS011;7420;53.574;10.040;2022-09-27T06:53:11;10.20;;;6.57;;
14665;SDS011;7420;53.574;10.040;2022-09-27T06:55:38;7.10;;;5.30;;
14665;SDS011;7420;53.574;10.040;2022-09-27T06:58:04;8.20;;;5.45;;
14665;SDS011;7420;53.574;10.040;2022-09-27T07:00:49;9.38;;;5.65;;
14665;SDS011;7420;53.574;10.040;2022-09-27T07:03:16;5.43;;;4.30;;
14665;SDS011;7420;53.574;10.040;2022-09-27T07:05:42;5.35;;;4.18;;
14665;SDS011;7420;53.574;10.040;2022-09-27T07:08:22;5.82;;;4.18;;
14665;SDS011;7420;53.574;10.040;2022-09-27T07:10:50;4.47;;;3.35;;
14665;SDS011;7420;53.574;10.040;2022-09-27T07:13:17;8.32;;;4.45;;
14665;SDS011;7420;53.574;10.040;2022-09-27T07:15:43;4.75;;;3.60;;
14665;SDS011;7420;53.574;10.040;2022-09-27T07:18:08;6.10;;;3.85;;
14665;SDS011;7420;53.574;10.040;2022-09-27T07:20:34;4.88;;;3.40;;
14665;SDS011;7420;53.574;10.040;2022-09-27T07:23:01;4.10;;;3.10;;
14665;SDS011;7420;53.574;10.040;2022-09-27T07:25:27;4.03;;;2.60;;
14665;SDS011;7420;53.574;10.040;2022-09-27T07:27:52;5.47;;;3.33;;
14665;SDS011;7420;53.574;10.040;2022-09-27T07:30:18;4.15;;;2.30;;
14665;SDS011;7420;53.574;10.040;2022-09-27T07:32:45;2.88;;;1.52;;
14665;SDS011;7420;53.574;10.040;2022-09-27T07:35:10;2.05;;;1.50;;
14665;SDS011;7420;53.574;10.040;2022-09-27T07:37:39;1.27;;;1.17;;
14665;SDS011;7420;53.574;10.040;2022-09-27T07:40:05;1.98;;;1.50;;
14665;SDS011;7420;53.574;10.040;2022-09-27T07:42:32;1.58;;;1.27;;
14665;SDS011;7420;53.574;10.040;2022-09-27T07:44:58;1.30;;;1.00;;
14665;SDS011;7420;53.574;10.040;2022-09-27T07:47:24;2.60;;;1.38;;
14665;SDS011;7420;53.574;10.040;2022-09-27T07:49:50;2.55;;;1.30;;
14665;SDS011;7420;53.574;10.040;2022-09-27T07:52:20;2.15;;;1.30;;
14665;SDS011;7420;53.574;10.040;2022-09-27T07:54:46;2.55;;;1.30;;
14665;SDS011;7420;53.574;10.040;2022-09-27T07:57:12;1.75;;;1.30;;
14665;SDS011;7420;53.574;10.040;2022-09-27T07:59:38;1.83;;;1.73;;
14665;SDS011;7420;53.574;10.040;2022-09-27T08:02:04;1.63;;;1.52;;
14665;SDS011;7420;53.574;10.040;2022-09-27T08:04:29;3.88;;;2.20;;
14665;SDS011;7420;53.574;10.040;2022-09-27T08:06:54;3.85;;;2.33;;
14665;SDS011;7420;53.574;10.040;2022-09-27T08:09:20;2.30;;;1.92;;
14665;SDS011;7420;53.574;10.040;2022-09-27T08:11:45;2.75;;;1.90;;
14665;SDS011;7420;53.574;10.040;2022-09-27T08:14:11;4.55;;;2.05;;
14665;SDS011;7420;53.574;10.040;2022-09-27T08:16:38;2.45;;;2.17;;
14665;SDS011;7420;53.574;10.040;2022-09-27T08:19:05;6.05;;;2.35;;
14665;SDS011;7420;53.574;10.040;2022-09-27T08:21:30;2.60;;;2.13;;
14665;SDS011;7420;53.574;10.040;2022-09-27T08:23:56;3.30;;;2.65;;
14665;SDS011;7420;53.574;10.040;2022-09-27T08:26:26;3.38;;;2.30;;
14665;SDS011;7420;53.574;10.040;2022-09-27T08:28:52;3.92;;;2.75;;
14665;SDS011;7420;53.574;10.040;2022-09-27T08:31:18;6.90;;;3.30;;
14665;SDS011;7420;53.574;10.040;2022-09-27T08:33:43;3.60;;;2.10;;
14665;SDS011;7420;53.574;10.040;2022-09-27T08:36:13;2.45;;;1.83;;
14665;SDS011;7420;53.574;10.040;2022-09-27T08:38:38;2.03;;;1.50;;
14665;SDS011;7420;53.574;10.040;2022-09-27T08:41:08;1.98;;;1.75;;
14665;SDS011;7420;53.574;10.040;2022-09-27T08:43:47;2.80;;;2.00;;
14665;SDS011;7420;53.574;10.040;2022-09-27T08:49:11;4.68;;;2.45;;
14665;SDS011;7420;53.574;10.040;2022-09-27T08:51:40;2.90;;;2.17;;
14665;SDS011;7420;53.574;10.040;2022-09-27T08:56:43;4.30;;;2.35;;
14665;SDS011;7420;53.574;10.040;2022-09-27T08:59:12;5.63;;;2.42;;
14665;SDS011;7420;53.574;10.040;2022-09-27T09:01:45;6.15;;;2.50;;
14665;SDS011;7420;53.574;10.040;2022-09-27T09:04:10;4.50;;;2.45;;
14665;SDS011;7420;53.574;10.040;2022-09-27T09:09:17;4.10;;;2.10;;
14665;SDS011;7420;53.574;10.040;2022-09-27T09:12:25;5.63;;;2.30;;
14665;SDS011;7420;53.574;10.040;2022-09-27T09:18:11;4.97;;;2.78;;
14665;SDS011;7420;53.574;10.040;2022-09-27T09:34:39;2.63;;;2.08;;
14665;SDS011;7420;53.574;10.040;2022-09-27T09:39:50;2.65;;;2.42;;
14665;SDS011;7420;53.574;10.040;2022-09-27T09:42:44;3.13;;;2.15;;
14665;SDS011;7420;53.574;10.040;2022-09-27T09:47:37;8.13;;;2.50;;
14665;SDS011;7420;53.574;10.040;2022-09-27T09:50:21;3.17;;;2.58;;
14665;SDS011;7420;53.574;10.040;2022-09-27T09:52:55;1.70;;;1.60;;
14665;SDS011;7420;53.574;10.040;2022-09-27T09:55:27;3.63;;;2.10;;
14665;SDS011;7420;53.574;10.040;2022-09-27T10:00:28;1.70;;;1.60;;
14665;SDS011;7420;53.574;10.040;2022-09-27T10:02:54;1.98;;;1.48;;
14665;SDS011;7420;53.574;10.040;2022-09-27T10:05:23;2.22;;;1.50;;
14665;SDS011;7420;53.574;10.040;2022-09-27T10:07:51;1.60;;;1.50;;
14665;SDS011;7420;53.574;10.040;2022-09-27T10:10:19;2.25;;;1.50;;
14665;SDS011;7420;53.574;10.040;2022-09-27T10:12:45;2.10;;;1.90;;
14665;SDS011;7420;53.574;10.040;2022-09-27T10:15:16;2.70;;;2.00;;
14665;SDS011;7420;53.574;10.040;2022-09-27T10:17:45;2.47;;;1.65;;
14665;SDS011;7420;53.574;10.040;2022-09-27T10:20:20;1.98;;;1.60;;
14665;SDS011;7420;53.574;10.040;2022-09-27T10:22:48;3.00;;;1.83;;
14665;SDS011;7420;53.574;10.040;2022-09-27T10:25:19;2.00;;;1.73;;
14665;SDS011;7420;53.574;10.040;2022-09-27T10:27:46;2.47;;;1.50;;
14665;SDS011;7420;53.574;10.040;2022-09-27T10:32:45;1.90;;;1.70;;
14665;SDS011;7420;53.574;10.040;2022-09-27T10:35:19;3.47;;;1.60;;
14665;SDS011;7420;53.574;10.040;2022-09-27T10:37:45;3.05;;;2.13;;
14665;SDS011;7420;53.574;10.040;2022-09-27T10:40:27;1.67;;;1.50;;
14665;SDS011;7420;53.574;10.040;2022-09-27T10:45:27;1.77;;;1.67;;
14665;SDS011;7420;53.574;10.040;2022-09-27T10:47:54;3.35;;;1.67;;
14665;SDS011;7420;53.574;10.040;2022-09-27T10:50:25;1.90;;;1.55;;
14665;SDS011;7420;53.574;10.040;2022-09-27T10:53:25;3.40;;;1.33;;
14665;SDS011;7420;53.574;10.040;2022-09-27T10:55:48;1.50;;;1.40;;
14665;SDS011;7420;53.574;10.040;2022-09-27T11:00:53;1.73;;;1.63;;
14665;SDS011;7420;53.574;10.040;2022-09-27T11:03:21;1.88;;;1.70;;
14665;SDS011;7420;53.574;10.040;2022-09-27T11:05:49;1.65;;;1.55;;
14665;SDS011;7420;53.574;10.040;2022-09-27T11:10:43;2.35;;;2.00;;
14665;SDS011;7420;53.574;10.040;2022-09-27T11:21:19;2.78;;;2.33;;
14665;SDS011;7420;53.574;10.040;2022-09-27T11:29:28;2.47;;;2.00;;
14665;SDS011;7420;53.574;10.040;2022-09-27T11:32:09;2.10;;;1.48;;
14665;SDS011;7420;53.574;10.040;2022-09-27T11:40:29;3.40;;;2.00;;
14665;SDS011;7420;53.574;10.040;2022-09-27T11:45:53;2.30;;;2.10;;
14665;SDS011;7420;53.574;10.040;2022-09-27T11:51:10;1.80;;;1.70;;
14665;SDS011;7420;53.574;10.040;2022-09-27T12:02:05;1.27;;;1.20;;
14665;SDS011;7420;53.574;10.040;2022-09-27T12:10:13;2.15;;;1.77;;
14665;SDS011;7420;53.574;10.040;2022-09-27T12:12:41;3.38;;;1.50;;
14665;SDS011;7420;53.574;10.040;2022-09-27T12:15:13;2.85;;;1.50;;
14665;SDS011;7420;53.574;10.040;2022-09-27T12:17:42;1.60;;;1.50;;
14665;SDS011;7420;53.574;10.040;2022-09-27T12:20:20;1.40;;;1.30;;
14665;SDS011;7420;53.574;10.040;2022-09-27T12:22:56;4.00;;;1.60;;
14665;SDS011;7420;53.574;10.040;2022-09-27T12:25:26;2.53;;;1.27;;
14665;SDS011;7420;53.574;10.040;2022-09-27T12:27:57;2.50;;;1.52;;
14665;SDS011;7420;53.574;10.040;2022-09-27T12:30:30;2.15;;;1.58;;
14665;SDS011;7420;53.574;10.040;2022-09-27T12:35:23;2.83;;;1.20;;
14665;SDS011;7420;53.574;10.040;2022-09-27T12:40:32;1.40;;;1.30;;
14665;SDS011;7420;53.574;10.040;2022-09-27T12:43:20;1.63;;;1.30;;
14665;SDS011;7420;53.574;10.040;2022-09-27T12:51:53;2.97;;;1.67;;
14665;SDS011;7420;53.574;10.040;2022-09-27T12:57:13;1.77;;;1.20;;
14665;SDS011;7420;53.574;10.040;2022-09-27T13:00:00;1.55;;;1.40;;
14665;SDS011;7420;53.574;10.040;2022-09-27T13:11:14;2.03;;;1.17;;
14665;SDS011;7420;53.574;10.040;2022-09-27T13:14:01;2.20;;;1.10;;
14665;SDS011;7420;53.574;10.040;2022-09-27T13:16:28;3.08;;;1.10;;
14665;SDS011;7420;53.574;10.040;2022-09-27T13:18:54;2.17;;;1.10;;
14665;SDS011;7420;53.574;10.040;2022-09-27T13:32:40;1.15;;;1.05;;
14665;SDS011;7420;53.574;10.040;2022-09-27T13:35:34;5.53;;;1.20;;
14665;SDS011;7420;53.574;10.040;2022-09-27T13:38:00;1.38;;;1.10;;
14665;SDS011;7420;53.574;10.040;2022-09-27T13:45:38;1.50;;;1.10;;
14665;SDS011;7420;53.574;10.040;2022-09-27T13:48:19;1.52;;;1.30;;
14665;SDS011;7420;53.574;10.040;2022-09-27T13:50:55;1.17;;;1.00;;
14665;SDS011;7420;53.574;10.040;2022-09-27T13:53:36;2.13;;;1.33;;
14665;SDS011;7420;53.574;10.040;2022-09-27T13:56:04;3.10;;;1.40;;
14665;SDS011;7420;53.574;10.040;2022-09-27T13:58:41;1.95;;;1.30;;
14665;SDS011;7420;53.574;10.040;2022-09-27T14:03:46;1.95;;;1.25;;
14665;SDS011;7420;53.574;10.040;2022-09-27T14:06:19;2.85;;;1.20;;
14665;SDS011;7420;53.574;10.040;2022-09-27T14:08:49;2.13;;;1.20;;
14665;SDS011;7420;53.574;10.040;2022-09-27T14:11:29;1.10;;;1.00;;
14665;SDS011;7420;53.574;10.040;2022-09-27T14:13:58;2.38;;;1.20;;
14665;SDS011;7420;53.574;10.040;2022-09-27T14:16:28;3.45;;;1.85;;
14665;SDS011;7420;53.574;10.040;2022-09-27T14:18:57;9.05;;;1.63;;
14665;SDS011;7420;53.574;10.040;2022-09-27T14:21:28;1.45;;;1.30;;
14665;SDS011;7420;53.574;10.040;2022-09-27T14:26:43;1.67;;;1.38;;
14665;SDS011;7420;53.574;10.040;2022-09-27T14:29:20;1.75;;;1.30;;
14665;SDS011;7420;53.574;10.040;2022-09-27T14:31:47;2.50;;;1.38;;
14665;SDS011;7420;53.574;10.040;2022-09-27T14:34:28;1.98;;;1.40;;
14665;SDS011;7420;53.574;10.040;2022-09-27T14:36:53;2.03;;;1.20;;
14665;SDS011;7420;53.574;10.040;2022-09-27T14:39:38;2.13;;;1.83;;
14665;SDS011;7420;53.574;10.040;2022-09-27T14:42:04;5.95;;;1.80;;
14665;SDS011;7420;53.574;10.040;2022-09-27T14:44:42;1.40;;;1.30;;
14665;SDS011;7420;53.574;10.040;2022-09-27T14:47:22;2.95;;;1.60;;
14665;SDS011;7420;53.574;10.040;2022-09-27T14:50:06;2.38;;;1.50;;
14665;SDS011;7420;53.574;10.040;2022-09-27T14:52:40;3.45;;;2.33;;
14665;SDS011;7420;53.574;10.040;2022-09-27T14:55:13;1.70;;;1.50;;
14665;SDS011;7420;53.574;10.040;2022-09-27T14:57:48;1.88;;;1.60;;
14665;SDS011;7420;53.574;10.040;2022-09-27T15:00:23;3.30;;;1.88;;
14665;SDS011;7420;53.574;10.040;2022-09-27T15:02:51;4.78;;;2.10;;
14665;SDS011;7420;53.574;10.040;2022-09-27T15:05:20;4.18;;;2.28;;
14665;SDS011;7420;53.574;10.040;2022-09-27T15:07:48;3.95;;;1.83;;
14665;SDS011;7420;53.574;10.040;2022-09-27T15:10:15;2.92;;;2.30;;
14665;SDS011;7420;53.574;10.040;2022-09-27T15:12:43;2.72;;;2.25;;
14665;SDS011;7420;53.574;10.040;2022-09-27T15:15:12;2.63;;;1.65;;
14665;SDS011;7420;53.574;10.040;2022-09-27T15:17:41;3.45;;;1.70;;
14665;SDS011;7420;53.574;10.040;2022-09-27T15:20:27;3.17;;;1.88;;
14665;SDS011;7420;53.574;10.040;2022-09-27T15:22:53;2.47;;;1.55;;
14665;SDS011;7420;53.574;10.040;2022-09-27T15:25:40;2.30;;;1.63;;
14665;SDS011;7420;53.574;10.040;2022-09-27T15:28:20;1.92;;;1.73;;
14665;SDS011;7420;53.574;10.040;2022-09-27T15:30:53;2.03;;;1.83;;
14665;SDS011;7420;53.574;10.040;2022-09-27T15:33:27;3.83;;;1.70;;
14665;SDS011;7420;53.574;10.040;2022-09-27T15:35:59;2.35;;;1.80;;
14665;SDS011;7420;53.574;10.040;2022-09-27T15:41:00;1.90;;;1.50;;
14665;SDS011;7420;53.574;10.040;2022-09-27T15:43:35;2.65;;;1.83;;
14665;SDS011;7420;53.574;10.040;2022-09-27T15:46:02;2.17;;;1.47;;
14665;SDS011;7420;53.574;10.040;2022-09-27T15:48:30;2.70;;;1.50;;
14665;SDS011;7420;53.574;10.040;2022-09-27T15:50:59;2.38;;;2.13;;
14665;SDS011;7420;53.574;10.040;2022-09-27T15:56:03;2.30;;;1.80;;
14665;SDS011;7420;53.574;10.040;2022-09-27T15:58:33;3.50;;;1.47;;
14665;SDS011;7420;53.574;10.040;2022-09-27T16:01:00;3.75;;;1.80;;
14665;SDS011;7420;53.574;10.040;2022-09-27T16:03:29;3.95;;;1.85;;
14665;SDS011;7420;53.574;10.040;2022-09-27T16:05:55;4.43;;;1.70;;
14665;SDS011;7420;53.574;10.040;2022-09-27T16:08:22;2.22;;;1.50;;
14665;SDS011;7420;53.574;10.040;2022-09-27T16:10:52;3.33;;;1.77;;
14665;SDS011;7420;53.574;10.040;2022-09-27T16:13:19;2.08;;;1.40;;
14665;SDS011;7420;53.574;10.040;2022-09-27T16:15:44;2.58;;;1.33;;
14665;SDS011;7420;53.574;10.040;2022-09-27T16:18:11;2.95;;;1.50;;
14665;SDS011;7420;53.574;10.040;2022-09-27T16:20:37;3.08;;;1.70;;
14665;SDS011;7420;53.574;10.040;2022-09-27T16:23:03;2.50;;;1.48;;
14665;SDS011;7420;53.574;10.040;2022-09-27T16:25:29;4.20;;;1.50;;
14665;SDS011;7420;53.574;10.040;2022-09-27T16:27:58;1.98;;;1.60;;
14665;SDS011;7420;53.574;10.040;2022-09-27T16:30:24;3.10;;;1.52;;
14665;SDS011;7420;53.574;10.040;2022-09-27T16:32:49;4.28;;;2.17;;
14665;SDS011;7420;53.574;10.040;2022-09-27T16:35:16;3.15;;;2.00;;
14665;SDS011;7420;53.574;10.040;2022-09-27T16:37:42;3.15;;;1.52;;
14665;SDS011;7420;53.574;10.040;2022-09-27T16:40:08;2.78;;;2.20;;
14665;SDS011;7420;53.574;10.040;2022-09-27T16:42:35;2.20;;;1.40;;
14665;SDS011;7420;53.574;10.040;2022-09-27T16:45:01;2.80;;;1.80;;
14665;SDS011;7420;53.574;10.040;2022-09-27T16:47:27;1.52;;;1.30;;
14665;SDS011;7420;53.574;10.040;2022-09-27T16:49:53;6.97;;;1.92;;
14665;SDS011;7420;53.574;10.040;2022-09-27T16:52:37;3.10;;;1.88;;
14665;SDS011;7420;53.574;10.040;2022-09-27T16:55:03;2.58;;;1.45;;
14665;SDS011;7420;53.574;10.040;2022-09-27T16:57:31;4.30;;;1.60;;
14665;SDS011;7420;53.574;10.040;2022-09-27T16:59:58;1.30;;;1.20;;
14665;SDS011;7420;53.574;10.040;2022-09-27T17:02:23;2.78;;;1.65;;
14665;SDS011;7420;53.574;10.040;2022-09-27T17:04:49;3.50;;;1.38;;
14665;SDS011;7420;53.574;10.040;2022-09-27T17:07:15;2.90;;;1.40;;
14665;SDS011;7420;53.574;10.040;2022-09-27T17:09:41;3.95;;;2.00;;
14665;SDS011;7420;53.574;10.040;2022-09-27T17:12:06;2.47;;;1.48;;
14665;SDS011;7420;53.574;10.040;2022-09-27T17:14:32;1.73;;;1.45;;
14665;SDS011;7420;53.574;10.040;2022-09-27T17:16:57;3.55;;;1.65;;
14665;SDS011;7420;53.574;10.040;2022-09-27T17:19:22;3.47;;;1.90;;
14665;SDS011;7420;53.574;10.040;2022-09-27T17:21:48;1.67;;;1.40;;
14665;SDS011;7420;53.574;10.040;2022-09-27T17:24:14;3.20;;;1.70;;
14665;SDS011;7420;53.574;10.040;2022-09-27T17:26:39;1.90;;;1.38;;
14665;SDS011;7420;53.574;10.040;2022-09-27T17:29:05;2.65;;;1.42;;
14665;SDS011;7420;53.574;10.040;2022-09-27T17:31:31;1.88;;;1.40;;
14665;SDS011;7420;53.574;10.040;2022-09-27T17:33:58;2.08;;;1.40;;
14665;SDS011;7420;53.574;10.040;2022-09-27T17:36:27;2.05;;;1.50;;
14665;SDS011;7420;53.574;10.040;2022-09-27T17:38:54;2.53;;;1.45;;
14665;SDS011;7420;53.574;10.040;2022-09-27T17:41:21;1.95;;;1.80;;
14665;SDS011;7420;53.574;10.040;2022-09-27T17:43:50;2.60;;;1.77;;
14665;SDS011;7420;53.574;10.040;2022-09-27T17:46:21;4.05;;;1.95;;
14665;SDS011;7420;53.574;10.040;2022-09-27T17:48:47;2.58;;;1.40;;
14665;SDS011;7420;53.574;10.040;2022-09-27T17:51:32;1.70;;;1.40;;
14665;SDS011;7420;53.574;10.040;2022-09-27T17:54:00;1.80;;;1.45;;
14665;SDS011;7420;53.574;10.040;2022-09-27T17:56:26;1.83;;;1.42;;
14665;SDS011;7420;53.574;10.040;2022-09-27T17:58:52;2.75;;;1.40;;